Wednesday, September 19, 2018, 3:25 PM EDT
Back to Local

KOFP, Hanover County Municipal

Location: Ashland, VA, United States Lat: 37.7
Local Time: 3:25 PM EDT (19:25 GMT) Lon: -77.433
Time Zone: US/Eastern Elev: 203 ft

Show me the last for .
Show Decoded

2018-09-19 14:54 METAR KOFP 191854Z AUTO VRB06KT 10SM SCT043 SCT050 31/21 A2995 RMK AO2 SLP138
                 T03060211 =
2018-09-19 13:54 METAR KOFP 191754Z AUTO 33006KT 10SM SCT039 BKN050 BKN060 31/22 A2995 RMK AO2
                 SLP140 T03060217 10306 20206 58003 =
2018-09-19 12:54 METAR KOFP 191654Z AUTO VRB05KT 10SM SCT038 30/22 A2996 RMK AO2 SLP143 T03000217
                 =
2018-09-19 11:54 METAR KOFP 191554Z AUTO VRB06G17KT 10SM BKN036 28/21 A2996 RMK AO2 SLP142
                 T02780211 =
2018-09-19 10:54 METAR KOFP 191454Z AUTO VRB05KT 10SM FEW030 FEW037 28/22 A2996 RMK AO2 SLP143
                 T02830222 51012 =
2018-09-19 09:54 METAR KOFP 191354Z AUTO VRB04KT 10SM CLR 26/22 A2995 RMK AO2 SLP140 T02610217 =
2018-09-19 08:54 METAR KOFP 191254Z AUTO VRB04KT 10SM CLR 23/21 A2994 RMK AO2 SLP136 T02330211 =
2018-09-19 07:54 METAR KOFP 191154Z AUTO 00000KT 9SM CLR 21/20 A2993 RMK AO2 SLP132 70021
                 T02060200 10206 20183 51015 =
2018-09-19 06:54 METAR KOFP 191054Z AUTO 00000KT 9SM CLR 19/18 A2991 RMK AO2 SLP127 T01890183 =
2018-09-19 05:54 METAR KOFP 190954Z AUTO 00000KT 6SM BR CLR 19/19 A2990 RMK AO2 SLP123 T01890189
                 =
2018-09-19 05:47 METAR KOFP 190947Z AUTO 00000KT 5SM BR CLR 18/18 A2990 RMK AO2 T01830183 =
2018-09-19 05:38 METAR KOFP 190938Z AUTO 00000KT 2 1/2SM BR CLR 19/19 A2989 RMK AO2 VIS 1V5
                 T01890189 =
2018-09-19 04:54 METAR KOFP 190854Z AUTO 00000KT 3SM BR CLR 19/19 A2988 RMK AO2 SLP117 T01940194
                 50002 =
2018-09-19 03:54 METAR KOFP 190754Z AUTO 00000KT 10SM CLR 20/19 A2989 RMK AO2 SLP118 T02000194 =
2018-09-19 02:54 METAR KOFP 190654Z AUTO 00000KT 10SM CLR 20/19 A2988 RMK AO2 SLP117 T02000194 =
2018-09-19 01:54 METAR KOFP 190554Z AUTO 00000KT 10SM CLR 20/19 A2988 RMK AO2 SLP115 T02000194
                 10233 20194 51001 =
2018-09-19 00:54 METAR KOFP 190454Z AUTO 00000KT 10SM CLR 21/19 A2988 RMK AO2 SLP115 T02060194
                 402890200 =
2018-09-18 23:54 METAR KOFP 190354Z AUTO 31003KT 10SM CLR 22/20 A2988 RMK AO2 SLP115 T02170200 =
2018-09-18 22:54 METAR KOFP 190254Z AUTO 00000KT 10SM CLR 22/21 A2987 RMK AO2 SLP114 T02170211
                 51010 =
2018-09-18 21:54 METAR KOFP 190154Z AUTO 00000KT 10SM CLR 23/22 A2987 RMK AO2 SLP112 T02280217 =
2018-09-18 20:54 METAR KOFP 190054Z AUTO 30003KT 10SM FEW055 23/23 A2985 RMK AO2 SLP107 T02280228
                 =
2018-09-18 19:54 METAR KOFP 182354Z AUTO 28003KT 10SM SCT055 23/23 A2984 RMK AO2 SLP103 60021
                 T02330233 10283 20233 53014 =
2018-09-18 18:54 METAR KOFP 182254Z AUTO 27003KT 10SM FEW075 OVC110 25/23 A2983 RMK AO2 SLP098
                 T02500233 =
2018-09-18 17:54 METAR KOFP 182154Z AUTO 30004KT 10SM SCT060 OVC100 25/24 A2981 RMK AO2 SLP093
                 T02500239 =
2018-09-18 16:54 METAR KOFP 182054Z AUTO 10SM FEW022 BKN055 OVC070 24/23 A2980 RMK AO2
                 RAE1955B14E54 SLP089 P0002 60021 T02390233 53007 =
2018-09-18 16:46 METAR KOFP 182046Z AUTO VRB04KT 5SM -RA BR SCT023 BKN050 OVC070 23/23 A2980 RMK
                 AO2 LTG DSNT E RAE1955B14 P0002 T02330228 =
2018-09-18 16:09 METAR KOFP 182009Z AUTO VRB06KT 10SM FEW012 BKN027 OVC044 23/23 A2980 RMK AO2
                 LTG DSNT E-S RAE1955 P0000 T02330228 =
2018-09-18 15:54 METAR KOFP 181954Z AUTO 31006KT 10SM -RA FEW011 BKN030 OVC044 24/23 A2979 RMK
                 AO2 LTG DSNT E-S RAE04B17 SLP087 P0004 T02390233 =
2018-09-18 15:44 METAR KOFP 181944Z AUTO VRB06KT 8SM -RA FEW009 BKN030 OVC043 23/23 A2979 RMK AO2
                 LTG DSNT ALQDS RAE04B17 P0004 T02330228 =
2018-09-18 15:38 METAR KOFP 181938Z AUTO 34005KT 5SM -RA BR SCT010 BKN024 OVC041 23/23 A2979 RMK
                 AO2 LTG DSNT ALQDS RAE04B17 P0003 T02330228 =
2018-09-18 15:33 METAR KOFP 181933Z AUTO VRB05KT 4SM VCTS RA BR FEW010 BKN013 OVC039 23/23 A2979
                 RMK AO2 LTG DSNT ALQDS RAE04B17 P0003 T02330233 =

Support USWX by starting your Amazon purchase here.